Time;durP1;ratioP1;P1;durP2;ratioP2;P2;SDS_P1;SDS_P2;PMS_P1;PMS_P2;Temp;Humidity;BMP_temperature;BMP_pressure;BME280_temperature;BME280_humidity;BME280_pressure;Samples;Min_cycle;Max_cycle;Signal;HPM_P1;HPM_P2
2022/11/29 00:00:44;;;;;;;;;;;8.40;99.90;;;;;;7341957;19;110332;-68
2022/11/29 00:03:12;;;;;;;;;;;8.40;99.90;;;;;;7340939;19;108851;-68
2022/11/29 00:05:39;;;;;;;;;;;8.30;99.90;;;;;;7340800;19;110338;-68
2022/11/29 00:08:06;;;;;;;;;;;8.20;99.90;;;;;;7345214;19;109214;-68
2022/11/29 00:10:36;;;;;;;;;;;8.20;99.90;;;;;;7340962;19;109572;-68
2022/11/29 00:13:03;;;;;;;;;;;8.10;99.90;;;;;;7340818;19;109345;-68
2022/11/29 00:15:34;;;;;;;;;;;8.10;99.90;;;;;;7342731;19;108622;-68
2022/11/29 00:18:02;;;;;;;;;;;8.10;99.90;;;;;;7340136;19;109200;-68
2022/11/29 00:20:29;;;;;;;;;;;8.10;99.90;;;;;;7340782;19;110457;-68
2022/11/29 00:22:56;;;;;;;;;;;8.10;99.90;;;;;;7340880;19;109252;-68
2022/11/29 00:25:23;;;;;;;;;;;8.10;99.90;;;;;;7338772;19;109725;-68
2022/11/29 00:27:50;;;;;;;;;;;8.10;99.90;;;;;;7340777;19;109816;-68
2022/11/29 00:30:18;;;;;;;;;;;8.10;99.90;;;;;;7342339;19;109120;-68
2022/11/29 00:32:44;;;;;;;;;;;8.10;99.90;;;;;;7338591;19;110203;-68
2022/11/29 00:35:11;;;;;;;;;;;8.10;99.90;;;;;;7341201;19;108860;-68
2022/11/29 00:37:38;;;;;;;;;;;8.10;99.90;;;;;;7339831;19;109752;-69
2022/11/29 00:40:05;;;;;;;;;;;8.00;99.90;;;;;;7339640;19;109727;-69
2022/11/29 00:42:32;;;;;;;;;;;8.00;99.90;;;;;;7342417;19;108772;-68
2022/11/29 00:44:59;;;;;;;;;;;8.00;99.90;;;;;;7339521;19;109889;-68
2022/11/29 00:47:26;;;;;;;;;;;8.00;99.90;;;;;;7338531;19;110633;-68
2022/11/29 00:49:53;;;;;;;;;;;8.00;99.90;;;;;;7340265;19;109587;-68
2022/11/29 00:52:20;;;;;;;;;;;7.90;99.90;;;;;;7344791;19;109878;-68
2022/11/29 00:54:47;;;;;;;;;;;7.90;99.90;;;;;;7339450;19;109180;-68
2022/11/29 00:57:13;;;;;;;;;;;7.80;99.90;;;;;;7339519;19;109500;-68
2022/11/29 00:59:40;;;;;;;;;;;7.80;99.90;;;;;;7339925;19;110540;-68
2022/11/29 01:02:07;;;;;;;;;;;7.70;99.90;;;;;;7338980;19;108500;-69
2022/11/29 01:04:34;;;;;;;;;;;7.70;99.90;;;;;;7340337;19;109445;-68
2022/11/29 01:07:01;;;;;;;;;;;7.70;99.90;;;;;;7340265;19;110387;-68
2022/11/29 01:09:28;;;;;;;;;;;7.70;99.90;;;;;;7338547;19;109160;-68
2022/11/29 01:11:55;;;;;;;;;;;7.70;99.90;;;;;;7346020;19;109194;-68
2022/11/29 01:14:22;;;;;;;;;;;7.60;99.90;;;;;;7337895;19;108979;-68
2022/11/29 01:16:48;;;;;;;;;;;7.60;99.90;;;;;;7338791;19;109401;-68
2022/11/29 01:19:15;;;;;;;;;;;7.60;99.90;;;;;;7338065;19;110202;-68
2022/11/29 01:21:42;;;;;;;;;;;7.50;99.90;;;;;;7339046;19;108479;-68
2022/11/29 01:24:09;;;;;;;;;;;7.50;99.90;;;;;;7338158;19;108768;-68
2022/11/29 01:26:36;;;;;;;;;;;7.50;99.90;;;;;;7338228;19;110675;-69
2022/11/29 01:29:03;;;;;;;;;;;7.50;99.90;;;;;;7338063;19;108473;-68
2022/11/29 01:31:31;;;;;;;;;;;7.60;99.90;;;;;;7339068;19;109567;-68
2022/11/29 01:34:00;;;;;;;;;;;7.60;99.90;;;;;;7343650;19;109182;-68
2022/11/29 01:36:27;;;;;;;;;;;7.60;99.90;;;;;;7340594;19;109756;-69
2022/11/29 01:38:55;;;;;;;;;;;7.60;99.90;;;;;;7340589;19;111316;-68
2022/11/29 01:41:23;;;;;;;;;;;7.60;99.90;;;;;;7336120;19;108511;-68
2022/11/29 01:43:56;;;;;;;;;;;7.60;99.90;;;;;;7339367;19;111292;-68
2022/11/29 01:46:23;;;;;;;;;;;7.60;99.90;;;;;;7337654;19;109341;-68
2022/11/29 01:48:53;;;;;;;;;;;7.60;99.90;;;;;;7335337;19;109082;-68
2022/11/29 01:51:20;;;;;;;;;;;7.60;99.90;;;;;;7337804;19;112185;-68
2022/11/29 01:53:47;;;;;;;;;;;7.60;99.90;;;;;;7338417;19;110654;-68
2022/11/29 01:56:17;;;;;;;;;;;7.60;99.90;;;;;;7343832;19;109248;-68
2022/11/29 01:58:44;;;;;;;;;;;7.60;99.90;;;;;;7338302;19;110803;-68
2022/11/29 02:01:11;;;;;;;;;;;7.60;99.90;;;;;;7336191;19;108518;-68
2022/11/29 02:03:38;;;;;;;;;;;7.60;99.90;;;;;;7340194;19;109180;-68
2022/11/29 02:06:06;;;;;;;;;;;7.60;99.90;;;;;;7333949;19;110381;-69
2022/11/29 02:08:38;;;;;;;;;;;7.60;99.90;;;;;;7336569;19;119838;-68
2022/11/29 02:11:14;;;;;;;;;;;7.60;99.90;;;;;;7337055;19;111748;-68
2022/11/29 02:13:41;;;;;;;;;;;7.50;99.90;;;;;;7337566;19;110773;-68
2022/11/29 02:16:15;;;;;;;;;;;7.50;99.90;;;;;;7338324;19;108650;-68
2022/11/29 02:18:45;;;;;;;;;;;7.50;99.90;;;;;;7342470;19;109212;-68
2022/11/29 02:21:33;;;;;;;;;;;7.50;99.90;;;;;;7336437;19;108331;-68
2022/11/29 02:24:09;;;;;;;;;;;7.50;99.90;;;;;;7338320;19;108715;-68
2022/11/29 02:26:39;;;;;;;;;;;7.50;99.90;;;;;;7336244;19;110275;-68
2022/11/29 02:29:25;;;;;;;;;;;7.40;99.90;;;;;;7337379;19;108488;-68
2022/11/29 02:32:10;;;;;;;;;;;7.40;99.90;;;;;;7336576;19;109197;-68
2022/11/29 02:34:37;;;;;;;;;;;7.40;99.90;;;;;;7335972;19;110988;-68
2022/11/29 02:37:26;;;;;;;;;;;7.40;99.90;;;;;;7337201;19;108852;-69
2022/11/29 02:40:11;;;;;;;;;;;7.40;99.90;;;;;;7338505;19;110164;-68
2022/11/29 02:42:56;;;;;;;;;;;7.30;99.90;;;;;;7341221;19;109759;-68
2022/11/29 02:45:35;;;;;;;;;;;7.30;99.90;;;;;;7337579;19;111068;-68
2022/11/29 02:48:11;;;;;;;;;;;7.30;99.90;;;;;;7333703;19;110480;-68
2022/11/29 02:50:47;;;;;;;;;;;7.30;99.90;;;;;;7337108;19;108791;-68
2022/11/29 02:53:17;;;;;;;;;;;7.30;99.90;;;;;;7335713;19;109320;-68
2022/11/29 02:55:53;;;;;;;;;;;7.20;99.90;;;;;;7334396;19;110163;-68
2022/11/29 02:58:38;;;;;;;;;;;7.20;99.90;;;;;;7335103;19;110850;-69
2022/11/29 03:01:17;;;;;;;;;;;7.20;99.90;;;;;;7340828;19;110547;-68
2022/11/29 03:03:47;;;;;;;;;;;7.20;99.90;;;;;;7340485;19;109322;-68
2022/11/29 03:06:29;;;;;;;;;;;7.20;99.90;;;;;;7347528;19;108603;-68
2022/11/29 03:09:14;;;;;;;;;;;7.20;99.90;;;;;;7342056;19;110543;-68
2022/11/29 03:11:44;;;;;;;;;;;7.20;99.90;;;;;;7344268;19;108627;-68
2022/11/29 03:14:18;;;;;;;;;;;7.20;99.90;;;;;;7342405;19;108648;-68
2022/11/29 03:17:09;;;;;;;;;;;7.20;99.90;;;;;;7345480;19;110099;-68
2022/11/29 03:19:35;;;;;;;;;;;7.20;99.90;;;;;;7342522;19;108506;-68
2022/11/29 03:22:11;;;;;;;;;;;7.20;99.90;;;;;;7343073;19;109424;-68
2022/11/29 03:24:44;;;;;;;;;;;7.20;99.90;;;;;;7342979;19;109125;-68
2022/11/29 03:27:12;;;;;;;;;;;7.20;99.90;;;;;;7347325;19;108627;-68
2022/11/29 03:29:39;;;;;;;;;;;7.20;99.90;;;;;;7343645;19;110342;-68
2022/11/29 03:32:16;;;;;;;;;;;7.20;99.90;;;;;;7338280;19;109353;-69
2022/11/29 03:34:43;;;;;;;;;;;7.00;99.90;;;;;;7344512;19;110044;-68
2022/11/29 03:37:16;;;;;;;;;;;7.00;99.90;;;;;;7340430;19;110257;-68
2022/11/29 03:39:43;;;;;;;;;;;7.00;99.90;;;;;;7345326;19;108821;-68
2022/11/29 03:42:13;;;;;;;;;;;7.00;99.90;;;;;;7339996;19;108960;-68
2022/11/29 03:44:51;;;;;;;;;;;7.00;99.90;;;;;;7342085;19;110952;-68
2022/11/29 03:47:24;;;;;;;;;;;7.00;99.90;;;;;;7340953;19;111161;-68
2022/11/29 03:50:12;;;;;;;;;;;6.90;99.90;;;;;;7349142;19;109600;-68
2022/11/29 03:52:46;;;;;;;;;;;7.00;99.90;;;;;;7342436;19;109007;-68
2022/11/29 03:55:28;;;;;;;;;;;7.00;99.90;;;;;;7342443;19;109406;-68
2022/11/29 03:58:04;;;;;;;;;;;6.90;99.90;;;;;;7341801;19;110285;-68
2022/11/29 04:00:46;;;;;;;;;;;7.00;99.90;;;;;;7341666;19;108519;-68
2022/11/29 04:03:31;;;;;;;;;;;6.90;99.90;;;;;;7337428;19;110287;-68
2022/11/29 04:06:13;;;;;;;;;;;6.90;99.90;;;;;;7338804;19;110336;-68
2022/11/29 04:08:58;;;;;;;;;;;6.80;99.90;;;;;;7340012;19;108369;-68
2022/11/29 04:11:36;;;;;;;;;;;6.90;99.90;;;;;;7338158;19;109853;-68
2022/11/29 04:14:02;;;;;;;;;;;6.90;99.90;;;;;;7344427;19;110387;-68
2022/11/29 04:16:42;;;;;;;;;;;6.90;99.90;;;;;;7340825;19;109753;-68
2022/11/29 04:19:09;;;;;;;;;;;6.90;99.90;;;;;;7340786;19;112172;-68
2022/11/29 04:21:56;;;;;;;;;;;6.90;99.90;;;;;;7342286;19;108589;-68
2022/11/29 04:24:47;;;;;;;;;;;6.90;99.90;;;;;;7338064;19;109355;-68
2022/11/29 04:27:27;;;;;;;;;;;7.00;99.90;;;;;;7337661;19;110413;-68
2022/11/29 04:30:09;;;;;;;;;;;7.00;99.90;;;;;;7340774;19;108169;-68
2022/11/29 04:32:54;;;;;;;;;;;7.00;99.90;;;;;;7341926;19;108302;-68
2022/11/29 04:35:39;;;;;;;;;;;7.00;99.90;;;;;;7339862;19;111404;-68
2022/11/29 04:38:06;;;;;;;;;;;7.00;99.90;;;;;;7345115;19;108387;-68
2022/11/29 04:40:48;;;;;;;;;;;7.00;99.90;;;;;;7341112;19;110377;-68
2022/11/29 04:43:34;;;;;;;;;;;7.00;99.90;;;;;;7338795;19;109014;-68
2022/11/29 04:46:23;;;;;;;;;;;7.00;99.90;;;;;;7340293;19;108170;-68
2022/11/29 04:49:09;;;;;;;;;;;7.00;99.90;;;;;;7338816;19;113561;-68
2022/11/29 04:51:42;;;;;;;;;;;7.00;99.90;;;;;;7340851;19;109547;-68
2022/11/29 04:54:21;;;;;;;;;;;7.10;99.90;;;;;;7340488;19;109523;-68
2022/11/29 04:56:53;;;;;;;;;;;7.00;99.90;;;;;;7341092;19;110366;-68
2022/11/29 04:59:39;;;;;;;;;;;7.00;99.90;;;;;;7340489;19;108857;-68
2022/11/29 05:02:15;;;;;;;;;;;6.90;99.90;;;;;;7346279;19;108515;-68
2022/11/29 05:05:00;;;;;;;;;;;7.00;99.90;;;;;;7340570;19;108926;-68
2022/11/29 05:07:36;;;;;;;;;;;7.00;99.90;;;;;;7338452;19;108591;-68
2022/11/29 05:10:21;;;;;;;;;;;7.00;99.90;;;;;;7339254;19;110275;-68
2022/11/29 05:13:07;;;;;;;;;;;7.00;99.90;;;;;;7339935;19;108593;-68
2022/11/29 05:15:42;;;;;;;;;;;7.00;99.90;;;;;;7339870;19;109633;-68
2022/11/29 05:18:30;;;;;;;;;;;7.00;99.90;;;;;;7339034;19;110620;-69
2022/11/29 05:24:24;;;;;;;;;;;7.00;99.90;;;;;;7339291;19;108662;-68
2022/11/29 05:26:53;;;;;;;;;;;7.00;99.90;;;;;;7340049;19;109113;-68
2022/11/29 05:29:38;;;;;;;;;;;6.90;99.90;;;;;;7334127;19;114106;-68
2022/11/29 05:32:23;;;;;;;;;;;7.00;99.90;;;;;;7333272;19;110160;-69
2022/11/29 05:35:21;;;;;;;;;;;6.90;99.90;;;;;;7337338;19;108934;-68
2022/11/29 05:37:51;;;;;;;;;;;6.90;99.90;;;;;;7333574;19;109173;-68
2022/11/29 05:40:21;;;;;;;;;;;6.90;99.90;;;;;;7333858;19;110253;-68
2022/11/29 05:42:57;;;;;;;;;;;7.00;99.90;;;;;;7334562;19;108545;-68
2022/11/29 05:45:31;;;;;;;;;;;6.90;99.90;;;;;;7333126;19;112557;-68
2022/11/29 05:48:15;;;;;;;;;;;6.90;99.90;;;;;;7338945;19;109321;-68
2022/11/29 05:51:09;;;;;;;;;;;6.90;99.90;;;;;;7334240;19;108513;-68
2022/11/29 05:53:42;;;;;;;;;;;6.90;99.90;;;;;;7334657;19;109699;-68
2022/11/29 05:56:14;;;;;;;;;;;6.90;99.90;;;;;;7333494;19;108589;-68
2022/11/29 05:59:07;;;;;;;;;;;6.90;99.90;;;;;;7337302;19;109913;-68
2022/11/29 06:01:38;;;;;;;;;;;6.90;99.90;;;;;;7337466;19;111075;-68
2022/11/29 06:04:05;;;;;;;;;;;7.00;99.90;;;;;;7337106;19;108892;-68
2022/11/29 06:06:43;;;;;;;;;;;6.90;99.90;;;;;;7339351;19;109164;-68
2022/11/29 06:09:20;;;;;;;;;;;6.90;99.90;;;;;;7337781;19;110160;-68
2022/11/29 06:11:55;;;;;;;;;;;6.90;99.90;;;;;;7343770;19;108682;-68
2022/11/29 06:14:25;;;;;;;;;;;6.90;99.90;;;;;;7337245;19;110917;-68
2022/11/29 06:17:12;;;;;;;;;;;6.80;99.90;;;;;;7336316;19;109271;-68
2022/11/29 06:19:54;;;;;;;;;;;6.70;99.90;;;;;;7339236;19;110170;-68
2022/11/29 06:22:33;;;;;;;;;;;6.70;99.90;;;;;;7337648;19;112486;-68
2022/11/29 06:25:14;;;;;;;;;;;6.60;99.90;;;;;;7338542;19;108833;-68
2022/11/29 06:28:00;;;;;;;;;;;6.60;99.90;;;;;;7337747;19;109280;-68
2022/11/29 06:30:38;;;;;;;;;;;6.50;99.90;;;;;;7335552;19;110137;-68
2022/11/29 06:33:16;;;;;;;;;;;6.50;99.90;;;;;;7337650;19;109439;-68
2022/11/29 06:35:50;;;;;;;;;;;6.50;99.90;;;;;;7351238;19;108283;-69
2022/11/29 06:38:20;;;;;;;;;;;6.40;99.90;;;;;;7343684;19;108417;-68
2022/11/29 06:40:47;;;;;;;;;;;6.40;99.90;;;;;;7345046;19;108523;-68
2022/11/29 06:43:14;;;;;;;;;;;6.30;99.90;;;;;;7344134;19;108957;-68
2022/11/29 06:45:45;;;;;;;;;;;6.20;99.90;;;;;;7343928;19;108984;-68
2022/11/29 06:48:17;;;;;;;;;;;6.20;99.90;;;;;;7344081;19;109631;-68
2022/11/29 06:50:47;;;;;;;;;;;6.20;99.90;;;;;;7344761;19;110458;-68
2022/11/29 06:53:14;;;;;;;;;;;6.30;99.90;;;;;;7342819;19;108756;-69
2022/11/29 06:55:41;;;;;;;;;;;6.30;99.90;;;;;;7344430;19;109754;-68
2022/11/29 06:58:40;;;;;;;;;;;6.30;99.90;;;;;;7345063;19;110351;-68
2022/11/29 07:01:27;;;;;;;;;;;6.40;99.90;;;;;;7340173;19;111591;-68
2022/11/29 07:04:13;;;;;;;;;;;6.30;99.90;;;;;;7340986;19;108222;-69
2022/11/29 07:06:40;;;;;;;;;;;6.30;99.90;;;;;;7343801;19;109059;-76
2022/11/29 07:09:15;;;;;;;;;;;6.20;99.90;;;;;;7341887;19;109623;-75
2022/11/29 07:11:42;;;;;;;;;;;6.20;99.90;;;;;;7344139;19;109866;-72
2022/11/29 07:14:09;;;;;;;;;;;6.20;99.90;;;;;;7341295;19;108208;-75
2022/11/29 07:16:42;;;;;;;;;;;6.20;99.90;;;;;;7343675;19;109491;-71
2022/11/29 07:19:16;;;;;;;;;;;6.30;99.90;;;;;;7341655;19;109245;-73
2022/11/29 07:21:54;;;;;;;;;;;6.30;99.90;;;;;;7348862;19;108905;-73
2022/11/29 07:24:36;;;;;;;;;;;6.30;99.90;;;;;;7342356;19;110458;-74
2022/11/29 07:27:03;;;;;;;;;;;6.40;99.90;;;;;;7343340;19;108685;-75
2022/11/29 07:29:30;;;;;;;;;;;6.40;99.90;;;;;;7341745;19;113794;-76
2022/11/29 07:32:03;;;;;;;;;;;6.40;99.90;;;;;;7342673;19;110561;-77
2022/11/29 07:34:41;;;;;;;;;;;6.40;99.90;;;;;;7341756;19;109045;-74
2022/11/29 07:37:27;;;;;;;;;;;6.40;99.90;;;;;;7341741;19;109250;-73
2022/11/29 07:39:57;;;;;;;;;;;6.40;99.90;;;;;;7341302;19;111732;-68
2022/11/29 07:42:30;;;;;;;;;;;6.40;99.90;;;;;;7340688;19;108717;-70
2022/11/29 07:44:57;;;;;;;;;;;6.50;99.90;;;;;;7347800;19;109145;-68
2022/11/29 07:47:24;;;;;;;;;;;6.60;99.90;;;;;;7337003;19;109238;-68
2022/11/29 07:49:51;;;;;;;;;;;6.70;99.90;;;;;;7341954;19;109228;-68
2022/11/29 07:52:18;;;;;;;;;;;6.70;99.90;;;;;;7341101;19;110415;-68
2022/11/29 07:54:44;;;;;;;;;;;6.80;99.90;;;;;;7342540;19;109196;-69
2022/11/29 07:57:12;;;;;;;;;;;6.80;99.90;;;;;;7340690;19;109152;-68
2022/11/29 07:59:39;;;;;;;;;;;6.90;99.90;;;;;;7340864;19;109190;-68
2022/11/29 08:02:06;;;;;;;;;;;6.90;99.90;;;;;;7341140;19;108984;-68
2022/11/29 08:04:42;;;;;;;;;;;6.80;99.90;;;;;;7347111;19;111174;-68
2022/11/29 08:07:10;;;;;;;;;;;6.80;99.90;;;;;;7341820;19;113496;-68
2022/11/29 08:09:37;;;;;;;;;;;6.80;99.90;;;;;;7339656;19;109272;-69
2022/11/29 08:12:04;;;;;;;;;;;6.90;99.90;;;;;;7341733;19;110608;-68
2022/11/29 08:14:32;;;;;;;;;;;7.00;99.90;;;;;;7340711;19;108346;-68
2022/11/29 08:16:59;;;;;;;;;;;7.00;99.90;;;;;;7343172;19;109043;-70
2022/11/29 08:19:26;;;;;;;;;;;7.00;99.90;;;;;;7339436;19;110145;-68
2022/11/29 08:21:53;;;;;;;;;;;7.00;99.90;;;;;;7341762;19;109140;-68
2022/11/29 08:24:20;;;;;;;;;;;7.10;99.90;;;;;;7337442;19;111125;-69
2022/11/29 08:26:47;;;;;;;;;;;7.10;99.90;;;;;;7343825;19;110162;-68
2022/11/29 08:29:14;;;;;;;;;;;7.20;99.90;;;;;;7339618;19;109330;-71
2022/11/29 08:31:41;;;;;;;;;;;7.20;99.90;;;;;;7339875;19;109210;-68
2022/11/29 08:34:09;;;;;;;;;;;7.30;99.90;;;;;;7340643;19;108826;-68
2022/11/29 08:36:36;;;;;;;;;;;7.30;99.90;;;;;;7342046;19;109102;-68
2022/11/29 08:39:03;;;;;;;;;;;7.30;99.90;;;;;;7339670;19;110672;-68
2022/11/29 08:41:35;;;;;;;;;;;7.30;99.90;;;;;;7341860;19;108561;-68
2022/11/29 08:44:03;;;;;;;;;;;7.30;99.90;;;;;;7338201;19;109135;-68
2022/11/29 08:49:16;;;;;;;;;;;7.50;99.90;;;;;;7347302;19;108434;-68
2022/11/29 08:51:43;;;;;;;;;;;7.50;99.90;;;;;;7338290;19;113508;-68
2022/11/29 08:54:09;;;;;;;;;;;7.60;99.90;;;;;;7338666;19;108800;-69
2022/11/29 08:56:36;;;;;;;;;;;7.60;99.90;;;;;;7340161;19;109168;-72
2022/11/29 08:59:23;;;;;;;;;;;7.70;99.90;;;;;;7338593;19;109127;-68
2022/11/29 09:01:50;;;;;;;;;;;7.70;99.90;;;;;;7341641;19;109047;-68
2022/11/29 09:04:17;;;;;;;;;;;7.80;99.90;;;;;;7338815;19;110089;-68
2022/11/29 09:06:44;;;;;;;;;;;7.80;99.90;;;;;;7334539;19;110350;-68
2022/11/29 09:09:11;;;;;;;;;;;7.80;99.90;;;;;;7337405;19;108462;-68
2022/11/29 09:11:38;;;;;;;;;;;7.80;99.90;;;;;;7344448;19;109137;-68
2022/11/29 09:14:06;;;;;;;;;;;7.80;99.90;;;;;;7340230;19;108853;-68
2022/11/29 09:16:34;;;;;;;;;;;7.90;99.90;;;;;;7341310;19;108830;-68
2022/11/29 09:19:02;;;;;;;;;;;7.90;99.90;;;;;;7339588;19;109069;-68
2022/11/29 09:21:30;;;;;;;;;;;8.00;99.90;;;;;;7339460;19;108759;-68
2022/11/29 09:23:58;;;;;;;;;;;8.00;99.90;;;;;;7340655;19;110131;-68
2022/11/29 09:26:28;;;;;;;;;;;8.10;99.90;;;;;;7339044;19;109701;-68
2022/11/29 09:28:56;;;;;;;;;;;8.10;99.90;;;;;;7340126;19;108695;-68
2022/11/29 09:31:24;;;;;;;;;;;8.20;99.90;;;;;;7338808;19;112593;-68
2022/11/29 09:33:51;;;;;;;;;;;8.20;99.90;;;;;;7340868;19;109565;-69
2022/11/29 09:36:18;;;;;;;;;;;8.30;99.90;;;;;;7339619;19;109173;-68
2022/11/29 09:38:52;;;;;;;;;;;8.30;99.90;;;;;;7337221;19;110199;-69
2022/11/29 09:41:26;;;;;;;;;;;8.30;99.90;;;;;;7337657;19;108616;-68
2022/11/29 09:44:11;;;;;;;;;;;8.40;99.90;;;;;;7338858;19;109768;-68
2022/11/29 09:46:52;;;;;;;;;;;8.50;99.90;;;;;;7337816;19;111413;-68
2022/11/29 09:49:36;;;;;;;;;;;8.50;99.90;;;;;;7338825;19;110142;-68
2022/11/29 09:52:03;;;;;;;;;;;8.50;99.90;;;;;;7337371;19;109563;-68
2022/11/29 09:54:48;;;;;;;;;;;8.60;99.90;;;;;;7336514;19;112843;-68
2022/11/29 09:57:16;;;;;;;;;;;8.60;99.90;;;;;;7343283;19;111877;-69
2022/11/29 09:59:48;;;;;;;;;;;8.60;99.90;;;;;;7337794;19;112426;-68
2022/11/29 10:02:25;;;;;;;;;;;8.70;99.90;;;;;;7337081;19;110395;-68
2022/11/29 10:04:55;;;;;;;;;;;8.70;99.90;;;;;;7335502;19;110465;-68
2022/11/29 10:07:43;;;;;;;;;;;8.80;99.90;;;;;;7337004;19;110372;-69
2022/11/29 10:10:16;;;;;;;;;;;8.80;99.90;;;;;;7334836;19;111552;-68
2022/11/29 10:12:45;;;;;;;;;;;8.90;99.90;;;;;;7337951;19;108475;-69
2022/11/29 10:15:19;;;;;;;;;;;8.90;99.90;;;;;;7335021;19;110158;-68
2022/11/29 10:17:52;;;;;;;;;;;9.00;99.90;;;;;;7343846;19;108919;-68
2022/11/29 10:20:20;;;;;;;;;;;9.00;99.90;;;;;;7336225;19;109205;-68
2022/11/29 10:22:54;;;;;;;;;;;9.10;99.90;;;;;;7339563;19;109357;-69
2022/11/29 10:25:47;;;;;;;;;;;9.20;99.90;;;;;;7336979;19;108945;-68
2022/11/29 10:28:24;;;;;;;;;;;9.20;99.90;;;;;;7335317;19;110283;-68
2022/11/29 10:31:07;;;;;;;;;;;9.20;99.90;;;;;;7339897;19;108947;-68
2022/11/29 10:33:35;;;;;;;;;;;9.30;99.90;;;;;;7338727;19;110129;-74
2022/11/29 10:36:04;;;;;;;;;;;9.30;99.90;;;;;;7337668;19;110967;-69
2022/11/29 10:38:31;;;;;;;;;;;9.30;99.90;;;;;;7336963;19;108859;-75
2022/11/29 10:41:05;;;;;;;;;;;9.40;99.90;;;;;;7342818;19;109084;-77
2022/11/29 10:43:32;;;;;;;;;;;9.40;99.90;;;;;;7338859;19;110749;-72
2022/11/29 10:46:01;;;;;;;;;;;9.50;99.90;;;;;;7337465;19;109157;-71
2022/11/29 10:48:32;;;;;;;;;;;9.50;99.90;;;;;;7335233;19;110637;-73
2022/11/29 10:51:00;;;;;;;;;;;9.50;99.90;;;;;;7338456;19;108816;-71
2022/11/29 10:53:29;;;;;;;;;;;9.60;99.90;;;;;;7336873;19;108474;-76
2022/11/29 10:56:05;;;;;;;;;;;9.60;99.90;;;;;;7337821;19;110299;-70
2022/11/29 10:58:33;;;;;;;;;;;9.60;99.90;;;;;;7338365;19;108615;-68
2022/11/29 11:01:21;;;;;;;;;;;9.70;99.90;;;;;;7336335;19;109746;-70
2022/11/29 11:03:51;;;;;;;;;;;9.70;99.90;;;;;;7336833;19;110391;-69
2022/11/29 11:06:23;;;;;;;;;;;9.70;99.90;;;;;;7332222;19;109625;-68
2022/11/29 11:08:52;;;;;;;;;;;9.80;99.90;;;;;;7333237;19;110294;-69
2022/11/29 11:11:37;;;;;;;;;;;9.80;99.90;;;;;;7332490;19;108889;-68
2022/11/29 11:14:15;;;;;;;;;;;9.80;99.90;;;;;;7333671;19;109687;-68
2022/11/29 11:16:42;;;;;;;;;;;9.90;99.90;;;;;;7333154;19;110231;-68
2022/11/29 11:19:39;;;;;;;;;;;9.90;99.90;;;;;;7335578;19;108592;-68
2022/11/29 11:22:05;;;;;;;;;;;9.90;99.90;;;;;;7341274;19;111156;-68
2022/11/29 11:24:35;;;;;;;;;;;10.00;99.90;;;;;;7342924;19;109332;-68
2022/11/29 11:27:02;;;;;;;;;;;10.00;99.90;;;;;;7348234;19;108432;-68
2022/11/29 11:29:32;;;;;;;;;;;10.10;99.90;;;;;;7342952;19;110247;-68
2022/11/29 11:31:59;;;;;;;;;;;10.10;99.90;;;;;;7343018;19;108532;-68
2022/11/29 11:34:33;;;;;;;;;;;10.20;99.90;;;;;;7340582;19;108793;-68
2022/11/29 11:37:19;;;;;;;;;;;10.20;99.90;;;;;;7343986;19;110456;-68
2022/11/29 11:39:47;;;;;;;;;;;10.30;99.90;;;;;;7344412;19;108565;-68
2022/11/29 11:45:03;;;;;;;;;;;10.40;99.90;;;;;;7341565;19;113681;-69
2022/11/29 11:47:31;;;;;;;;;;;10.40;99.90;;;;;;7340288;19;108787;-69
2022/11/29 11:50:02;;;;;;;;;;;10.50;99.90;;;;;;7345259;19;108757;-68
2022/11/29 11:52:32;;;;;;;;;;;10.50;99.90;;;;;;7343170;19;108426;-68
2022/11/29 11:55:24;;;;;;;;;;;10.50;99.90;;;;;;7341803;19;111318;-68
2022/11/29 11:58:03;;;;;;;;;;;10.50;99.90;;;;;;7341276;19;109104;-69
2022/11/29 12:00:36;;;;;;;;;;;10.50;99.90;;;;;;7343588;19;108458;-69
2022/11/29 12:03:42;;;;;;;;;;;10.50;99.90;;;;;;7341941;19;111170;-68
2022/11/29 12:06:27;;;;;;;;;;;10.50;99.90;;;;;;7341214;19;113319;-69
2022/11/29 12:08:58;;;;;;;;;;;10.60;99.90;;;;;;7340987;19;109258;-70
2022/11/29 12:11:25;;;;;;;;;;;10.60;99.90;;;;;;7345165;19;110733;-68
2022/11/29 12:13:55;;;;;;;;;;;10.60;99.90;;;;;;7342032;19;108971;-69
2022/11/29 12:16:27;;;;;;;;;;;10.60;99.90;;;;;;7340875;19;110143;-69
2022/11/29 12:18:59;;;;;;;;;;;10.60;99.90;;;;;;7342224;19;109275;-69
2022/11/29 12:21:30;;;;;;;;;;;10.70;99.90;;;;;;7343213;19;108598;-69
2022/11/29 12:23:59;;;;;;;;;;;10.70;99.90;;;;;;7341461;19;108503;-69
2022/11/29 12:26:31;;;;;;;;;;;10.60;99.90;;;;;;7339221;19;109888;-68
2022/11/29 12:29:18;;;;;;;;;;;10.60;99.90;;;;;;7339445;19;108469;-69
2022/11/29 12:32:04;;;;;;;;;;;10.60;99.90;;;;;;7340804;19;112505;-68
2022/11/29 12:34:39;;;;;;;;;;;10.60;99.90;;;;;;7345668;19;112843;-69
2022/11/29 12:37:09;;;;;;;;;;;10.60;99.90;;;;;;7340012;19;109033;-69
2022/11/29 12:39:54;;;;;;;;;;;10.60;99.90;;;;;;7340627;19;110477;-69
2022/11/29 12:42:21;;;;;;;;;;;10.70;99.90;;;;;;7338567;19;108224;-69
2022/11/29 12:45:03;;;;;;;;;;;10.50;99.90;;;;;;7339750;19;108556;-68
2022/11/29 12:47:33;;;;;;;;;;;10.50;99.90;;;;;;7340616;19;111236;-69
2022/11/29 12:50:14;;;;;;;;;;;10.50;99.90;;;;;;7339777;19;108741;-69
2022/11/29 12:52:53;;;;;;;;;;;10.50;99.90;;;;;;7342384;19;109342;-68
2022/11/29 12:55:23;;;;;;;;;;;10.50;99.90;;;;;;7341609;19;110123;-68
2022/11/29 12:58:05;;;;;;;;;;;10.60;99.90;;;;;;7345316;19;109149;-69
2022/11/29 13:00:39;;;;;;;;;;;10.60;99.90;;;;;;7338729;19;109991;-68
2022/11/29 13:03:06;;;;;;;;;;;10.50;99.90;;;;;;7338932;19;108689;-69
2022/11/29 13:05:40;;;;;;;;;;;10.60;99.90;;;;;;7340215;19;108963;-69
2022/11/29 13:08:18;;;;;;;;;;;10.60;99.90;;;;;;7339828;19;112450;-69
2022/11/29 13:11:00;;;;;;;;;;;10.60;99.90;;;;;;7340526;19;108588;-69
2022/11/29 13:13:30;;;;;;;;;;;10.60;99.90;;;;;;7338130;19;109110;-69
2022/11/29 13:16:01;;;;;;;;;;;10.60;99.90;;;;;;7338664;19;112382;-69
2022/11/29 13:18:30;;;;;;;;;;;10.60;99.90;;;;;;7339836;19;108775;-69
2022/11/29 13:21:00;;;;;;;;;;;10.60;99.90;;;;;;7341942;19;109194;-70
2022/11/29 13:23:27;;;;;;;;;;;10.60;99.90;;;;;;7340129;19;109037;-69
2022/11/29 13:26:15;;;;;;;;;;;10.60;99.90;;;;;;7338437;19;110596;-69
2022/11/29 13:28:43;;;;;;;;;;;10.60;99.90;;;;;;7336700;19;109323;-69
2022/11/29 13:31:12;;;;;;;;;;;10.60;99.90;;;;;;7337534;19;108372;-69
2022/11/29 13:33:48;;;;;;;;;;;10.60;99.90;;;;;;7339354;19;108457;-69
2022/11/29 13:36:28;;;;;;;;;;;10.60;99.90;;;;;;7337203;19;111529;-69
2022/11/29 13:39:05;;;;;;;;;;;10.60;99.90;;;;;;7338982;19;109708;-69
2022/11/29 13:41:44;;;;;;;;;;;10.50;99.90;;;;;;7338684;19;109149;-69
2022/11/29 13:44:27;;;;;;;;;;;10.60;99.90;;;;;;7340782;19;109114;-69
2022/11/29 13:47:10;;;;;;;;;;;10.50;99.90;;;;;;7338526;19;109572;-69
2022/11/29 13:50:03;;;;;;;;;;;10.50;99.90;;;;;;7338688;19;109680;-68
2022/11/29 13:52:39;;;;;;;;;;;10.50;99.90;;;;;;7338151;19;108697;-69
2022/11/29 13:55:10;;;;;;;;;;;10.50;99.90;;;;;;7337768;19;109557;-69
2022/11/29 13:57:47;;;;;;;;;;;10.50;99.90;;;;;;7340607;19;110376;-68
2022/11/29 14:00:34;;;;;;;;;;;10.50;99.90;;;;;;7338421;19;109174;-69
2022/11/29 14:03:26;;;;;;;;;;;10.50;99.90;;;;;;7339009;19;109928;-69
2022/11/29 14:05:53;;;;;;;;;;;10.50;99.90;;;;;;7337915;19;111975;-69
2022/11/29 14:08:23;;;;;;;;;;;10.50;99.90;;;;;;7342235;19;109035;-69
2022/11/29 14:10:51;;;;;;;;;;;10.50;99.90;;;;;;7337086;19;110641;-69
2022/11/29 14:13:21;;;;;;;;;;;10.50;99.90;;;;;;7336580;19;108703;-69
2022/11/29 14:15:56;;;;;;;;;;;10.50;99.90;;;;;;7338130;19;108303;-69
2022/11/29 14:18:41;;;;;;;;;;;10.50;99.90;;;;;;7335738;19;109395;-69
2022/11/29 14:21:08;;;;;;;;;;;10.50;99.90;;;;;;7336506;19;109419;-68
2022/11/29 14:23:36;;;;;;;;;;;10.50;99.90;;;;;;7339900;19;109357;-69
2022/11/29 14:26:03;;;;;;;;;;;10.50;99.90;;;;;;7337942;19;110476;-68
2022/11/29 14:28:32;;;;;;;;;;;10.50;99.90;;;;;;7344702;19;109696;-68
2022/11/29 14:31:02;;;;;;;;;;;10.50;99.90;;;;;;7336423;19;110836;-68
2022/11/29 14:33:32;;;;;;;;;;;10.50;99.90;;;;;;7337107;19;109199;-69
2022/11/29 14:35:59;;;;;;;;;;;10.50;99.90;;;;;;7339294;19;109170;-68
2022/11/29 14:38:36;;;;;;;;;;;10.50;99.90;;;;;;7336863;19;111062;-68
2022/11/29 14:41:18;;;;;;;;;;;10.40;99.90;;;;;;7337458;19;109315;-70
2022/11/29 14:43:45;;;;;;;;;;;10.50;99.90;;;;;;7337868;19;110375;-70
2022/11/29 14:46:15;;;;;;;;;;;10.60;99.90;;;;;;7335240;19;110386;-70
2022/11/29 14:48:54;;;;;;;;;;;10.70;99.90;;;;;;7336967;19;108448;-69
2022/11/29 14:51:22;;;;;;;;;;;10.80;99.90;;;;;;7342409;19;112365;-69
2022/11/29 14:54:04;;;;;;;;;;;11.00;99.90;;;;;;7336691;19;108567;-70
2022/11/29 14:56:31;;;;;;;;;;;11.10;99.90;;;;;;7343795;19;108750;-69
2022/11/29 14:59:17;;;;;;;;;;;11.20;99.90;;;;;;7342832;19;110153;-70